M/V Le Conte — WZE4270 — position and weather

sailwx.info

Track history (hours):
 
Tides and Currents Weather Stations Pressure Air Temp Water Temp Dewpoint Dewpoint Depression Visibility Wind Speed Wind Dir Waves Ship Positions

M/V Le Conte

Owner: ALASKA MARINE HIGHWAY SYSTEM, JUNEAU, AK. More information available from US FCC via Universal Licensing System and Coast Guard Vessel Documentation Center.

Last reported at 2019-Apr-24 21:32 UTC. Time now 2019-Apr-25 10:18 UTC.
Position N 58°11' W 135°27'.

Type: Passenger vessel. MMSI: 338761000.

Date/timePositionNaut miles runAvg speedWind from/ knotsBaromVisibWave heightAir tempDewpointWater temp
2019-Apr-24 21:32N 58°11' W 135°27'115.8
2019-Apr-24 21:29N 58°11' W 135°28'816.6
2019-Apr-24 21:00N 58°17' W 135°40'714.2
2019-Apr-24 20:30N 58°23' W 135°44'0 0.1
2019-Apr-24 19:36N 58°23' W 135°44'0 0.0
2019-Apr-24 19:23N 58°23' W 135°44'2 5.6
2019-Apr-24 19:00N 58°21' W 135°45'814.9
2019-Apr-24 18:29N 58°16' W 135°34'6 0.1
2019-Apr-22 21:38N 58°14' W 135°24'216.2
2019-Apr-22 21:30N 58°15' W 135°27'816.7
2019-Apr-22 21:00N 58°18' W 135°42'510.8
2019-Apr-22 20:30N 58°23' W 135°43'612.7
2019-Apr-22 20:00N 58°17' W 135°40'914.7
2019-Apr-22 19:23N 58°11' W 135°28'  
2019-Apr-17 22:53N 58°15' W 135°28'614.8
2019-Apr-17 22:29N 58°17' W 135°38'713.9
2019-Apr-17 22:00N 58°23' W 135°45'1 1.6
2019-Apr-17 21:29N 58°23' W 135°44'0 0.0
2019-Apr-17 21:00N 58°23' W 135°44'4 7.2
2019-Apr-17 20:30N 58°20' W 135°43'12 0.7
2019-Apr-17 03:32N 58°14' W 135°23'116.1
2019-Apr-17 03:29N 58°14' W 135°24'816.5
2019-Apr-17 03:00N 58°16' W 135°38'917.3
2019-Apr-17 02:30N 58°19' W 135°54'816.6
2019-Apr-17 02:00N 58°18' W 136°10'815.3
2019-Apr-17 01:29N 58°17' W 136°24'4 0.8
2019-Apr-16 20:01N 58°14' W 136°19'018.2
2019-Apr-16 20:00N 58°14' W 136°19'916.1
2019-Apr-16 19:29N 58°16' W 136°03'816.0
2019-Apr-16 19:00N 58°18' W 135°49'815.5
2019-Apr-16 18:28N 58°16' W 135°34'3 0.1
2019-Apr-15 21:23N 58°13' W 135°31'615.3
2019-Apr-15 20:59N 58°17' W 135°40'713.5
2019-Apr-15 20:30N 58°23' W 135°44'0 0.4
2019-Apr-15 19:58N 58°23' W 135°44'0 0.0
2019-Apr-15 19:28N 58°23' W 135°44'2 3.5
2019-Apr-15 19:00N 58°22' W 135°46'815.2
2019-Apr-15 18:30N 58°16' W 135°36'  
Track history (hours):
 
Tides and Currents Weather Stations Pressure Air Temp Water Temp Dewpoint Dewpoint Depression Visibility Wind Speed Wind Dir Waves Ship Positions

M/V Le Conte

Owner: ALASKA MARINE HIGHWAY SYSTEM, JUNEAU, AK. More information available from US FCC via Universal Licensing System and Coast Guard Vessel Documentation Center.

Last reported at 2019-Apr-24 21:32 UTC. Time now 2019-Apr-25 10:18 UTC.
Position N 58°11' W 135°27'.

Type: Passenger vessel. MMSI: 338761000.

Date/timePositionNaut miles runAvg speedWind from/ knotsBaromVisibWave heightAir tempDewpointWater temp
2019-Apr-24 21:32N 58°11' W 135°27'115.8
2019-Apr-24 21:29N 58°11' W 135°28'816.6
2019-Apr-24 21:00N 58°17' W 135°40'714.2
2019-Apr-24 20:30N 58°23' W 135°44'0 0.1
2019-Apr-24 19:36N 58°23' W 135°44'0 0.0
2019-Apr-24 19:23N 58°23' W 135°44'2 5.6
2019-Apr-24 19:00N 58°21' W 135°45'814.9
2019-Apr-24 18:29N 58°16' W 135°34'6 0.1
2019-Apr-22 21:38N 58°14' W 135°24'216.2
2019-Apr-22 21:30N 58°15' W 135°27'816.7
2019-Apr-22 21:00N 58°18' W 135°42'510.8
2019-Apr-22 20:30N 58°23' W 135°43'612.7
2019-Apr-22 20:00N 58°17' W 135°40'914.7
2019-Apr-22 19:23N 58°11' W 135°28'  
2019-Apr-17 22:53N 58°15' W 135°28'614.8
2019-Apr-17 22:29N 58°17' W 135°38'713.9
2019-Apr-17 22:00N 58°23' W 135°45'1 1.6
2019-Apr-17 21:29N 58°23' W 135°44'0 0.0
2019-Apr-17 21:00N 58°23' W 135°44'4 7.2
2019-Apr-17 20:30N 58°20' W 135°43'12 0.7
2019-Apr-17 03:32N 58°14' W 135°23'116.1
2019-Apr-17 03:29N 58°14' W 135°24'816.5
2019-Apr-17 03:00N 58°16' W 135°38'917.3
2019-Apr-17 02:30N 58°19' W 135°54'816.6
2019-Apr-17 02:00N 58°18' W 136°10'815.3
2019-Apr-17 01:29N 58°17' W 136°24'4 0.8
2019-Apr-16 20:01N 58°14' W 136°19'018.2
2019-Apr-16 20:00N 58°14' W 136°19'916.1
2019-Apr-16 19:29N 58°16' W 136°03'816.0
2019-Apr-16 19:00N 58°18' W 135°49'815.5
2019-Apr-16 18:28N 58°16' W 135°34'3 0.1
2019-Apr-15 21:23N 58°13' W 135°31'615.3
2019-Apr-15 20:59N 58°17' W 135°40'713.5
2019-Apr-15 20:30N 58°23' W 135°44'0 0.4
2019-Apr-15 19:58N 58°23' W 135°44'0 0.0
2019-Apr-15 19:28N 58°23' W 135°44'2 3.5
2019-Apr-15 19:00N 58°22' W 135°46'815.2
2019-Apr-15 18:30N 58°16' W 135°36'  

Dump ship's entire track history